Time;durP1;ratioP1;P1;durP2;ratioP2;P2;SDS_P1;SDS_P2;PMS_P1;PMS_P2;Temp;Humidity;BMP_temperature;BMP_pressure;BME280_temperature;BME280_humidity;BME280_pressure;Samples;Min_cycle;Max_cycle;Signal;HPM_P1;HPM_P2
2023/05/26 00:00:55;;;;;;;8.10;2.20;;;14.70;99.90;;;;;;4983587;28;20042;-77
2023/05/26 00:03:20;;;;;;;5.57;3.03;;;14.70;99.90;;;;;;4967757;28;20034;-77
2023/05/26 00:05:46;;;;;;;6.03;2.00;;;14.60;99.90;;;;;;4967235;28;20049;-77
2023/05/26 00:08:12;;;;;;;8.98;2.80;;;14.60;99.90;;;;;;4984840;28;20035;-78
2023/05/26 00:10:38;;;;;;;6.93;2.70;;;14.40;99.90;;;;;;4983690;28;20034;-77
2023/05/26 00:13:04;;;;;;;5.05;2.13;;;14.40;99.90;;;;;;4985152;28;20030;-77
2023/05/26 00:15:30;;;;;;;3.97;1.80;;;14.40;99.90;;;;;;4966899;28;20089;-77
2023/05/26 00:18:01;;;;;;;4.60;2.63;;;14.30;99.90;;;;;;4984979;28;20375;-77
2023/05/26 00:20:27;;;;;;;6.68;3.03;;;14.20;99.90;;;;;;4967521;28;20041;-78
2023/05/26 00:22:53;;;;;;;5.60;2.65;;;14.10;99.90;;;;;;4984611;28;20117;-77
2023/05/26 00:25:20;;;;;;;6.18;2.42;;;14.10;99.90;;;;;;4966802;28;20106;-77
2023/05/26 00:27:45;;;;;;;5.53;2.33;;;14.10;99.90;;;;;;4984490;28;20019;-78
2023/05/26 00:30:12;;;;;;;6.97;2.75;;;14.10;99.90;;;;;;4983214;28;20038;-78
2023/05/26 00:32:38;;;;;;;14.90;3.25;;;14.00;99.90;;;;;;4984615;28;20134;-77
2023/05/26 00:35:04;;;;;;;5.25;2.20;;;13.90;99.90;;;;;;4984599;28;20114;-77
2023/05/26 00:37:30;;;;;;;6.25;2.67;;;13.90;99.90;;;;;;4983656;28;20031;-77
2023/05/26 00:39:56;;;;;;;6.43;2.35;;;13.80;99.90;;;;;;4985167;28;20042;-77
2023/05/26 00:42:22;;;;;;;5.57;2.75;;;13.80;99.90;;;;;;4965294;28;20125;-78
2023/05/26 00:44:51;;;;;;;6.88;2.60;;;13.70;99.90;;;;;;4986185;28;20062;-78
2023/05/26 00:47:17;;;;;;;7.47;2.95;;;13.70;99.90;;;;;;4981489;28;20023;-78
2023/05/26 00:49:45;;;;;;;5.85;2.70;;;13.60;99.90;;;;;;4986596;28;20042;-77
2023/05/26 00:52:11;;;;;;;5.25;2.75;;;13.60;99.90;;;;;;4980809;28;20055;-77
2023/05/26 00:54:41;;;;;;;5.55;2.25;;;13.60;99.90;;;;;;4987473;28;20492;-77
2023/05/26 00:57:08;;;;;;;7.65;2.35;;;13.50;99.90;;;;;;4963705;28;20027;-77
2023/05/26 00:59:34;;;;;;;3.38;2.38;;;13.50;99.90;;;;;;4969941;28;20045;-77
2023/05/26 01:02:01;;;;;;;9.57;2.63;;;13.50;99.90;;;;;;4943738;29;20110;-78
2023/05/26 01:04:27;;;;;;;5.93;2.30;;;13.40;99.90;;;;;;4965344;28;20036;-77
2023/05/26 01:06:55;;;;;;;5.00;2.47;;;13.40;99.90;;;;;;4955863;28;20026;-77
2023/05/26 01:09:22;;;;;;;7.13;2.78;;;13.40;99.90;;;;;;4977248;28;20026;-78
2023/05/26 01:12:08;;;;;;;5.88;2.88;;;13.30;99.90;;;;;;4947139;28;20508;-78
2023/05/26 01:14:44;;;;;;;8.45;2.42;;;13.30;99.90;;;;;;4971330;28;20043;-78
2023/05/26 01:17:24;;;;;;;5.43;2.38;;;13.30;99.90;;;;;;4980218;28;20394;-78
2023/05/26 01:20:21;;;;;;;7.78;2.80;;;13.20;99.90;;;;;;4940098;28;20033;-79
2023/05/26 01:22:48;;;;;;;5.80;2.72;;;13.20;99.90;;;;;;4973794;28;20482;-79
2023/05/26 01:25:46;;;;;;;6.20;3.22;;;13.20;99.90;;;;;;4971560;28;20046;-79
2023/05/26 01:28:21;;;;;;;6.00;2.97;;;13.10;99.90;;;;;;4982734;28;20394;-79
2023/05/26 01:30:49;;;;;;;7.10;3.08;;;13.20;99.90;;;;;;4966279;28;20061;-79
2023/05/26 01:33:15;;;;;;;7.13;2.30;;;13.20;99.90;;;;;;4965955;28;20034;-79
2023/05/26 01:35:41;;;;;;;13.68;3.38;;;13.20;99.90;;;;;;4965624;28;20045;-79
2023/05/26 01:38:07;;;;;;;7.28;3.17;;;13.10;99.90;;;;;;4983470;28;20023;-79
2023/05/26 01:40:34;;;;;;;4.63;2.50;;;13.10;99.90;;;;;;4942805;28;20670;-79
2023/05/26 01:43:11;;;;;;;6.00;2.58;;;13.00;99.90;;;;;;4966117;28;20065;-78
2023/05/26 01:46:00;;;;;;;8.82;3.65;;;12.90;99.90;;;;;;4942799;28;20522;-79
2023/05/26 01:48:28;;;;;;;8.45;3.25;;;12.90;99.90;;;;;;4967298;28;20129;-79
2023/05/26 01:51:00;;;;;;;4.68;2.35;;;12.80;99.90;;;;;;4965081;28;20034;-79
2023/05/26 01:53:37;;;;;;;6.22;2.95;;;12.80;99.90;;;;;;4983207;28;20026;-79
2023/05/26 01:56:04;;;;;;;9.60;3.65;;;12.80;99.90;;;;;;4965952;28;20030;-79
2023/05/26 01:58:31;;;;;;;7.57;2.92;;;12.80;99.90;;;;;;4982835;28;20085;-79
2023/05/26 02:00:58;;;;;;;5.70;2.88;;;12.70;99.90;;;;;;4962067;28;20635;-79
2023/05/26 02:03:24;;;;;;;5.43;2.90;;;12.80;99.90;;;;;;4982901;28;20034;-79
2023/05/26 02:05:50;;;;;;;7.30;2.80;;;12.70;99.90;;;;;;4965223;28;20434;-79
2023/05/26 02:08:16;;;;;;;8.77;3.00;;;12.70;99.90;;;;;;4949591;28;20029;-79
2023/05/26 02:10:41;;;;;;;4.80;2.95;;;12.70;99.90;;;;;;4981792;28;20509;-78
2023/05/26 02:13:07;;;;;;;5.13;2.63;;;12.60;99.90;;;;;;4962194;28;20060;-79
2023/05/26 02:15:33;;;;;;;10.93;3.97;;;12.60;99.90;;;;;;4957057;28;20038;-79
2023/05/26 02:18:00;;;;;;;6.28;2.70;;;12.60;99.90;;;;;;4982677;28;20117;-79
2023/05/26 02:20:26;;;;;;;10.52;3.33;;;12.50;99.90;;;;;;4981662;28;20039;-79
2023/05/26 02:22:52;;;;;;;6.80;3.53;;;12.40;99.90;;;;;;4982801;28;20081;-78
2023/05/26 02:25:18;;;;;;;6.00;3.08;;;12.50;99.90;;;;;;4941830;28;20066;-79
2023/05/26 02:27:44;;;;;;;4.65;2.85;;;12.50;99.90;;;;;;4965532;28;20201;-79
2023/05/26 02:30:11;;;;;;;7.05;3.60;;;12.40;99.90;;;;;;4981769;28;20484;-79
2023/05/26 02:32:36;;;;;;;8.00;2.80;;;12.30;99.90;;;;;;4954522;28;20073;-79
2023/05/26 02:35:06;;;;;;;6.70;3.10;;;12.30;99.90;;;;;;4937288;28;20038;-78
2023/05/26 02:37:32;;;;;;;6.30;2.55;;;12.30;99.90;;;;;;4982532;28;20018;-79
2023/05/26 02:39:58;;;;;;;10.82;2.83;;;12.20;99.90;;;;;;4970141;28;20682;-79
2023/05/26 02:42:24;;;;;;;5.85;3.22;;;12.10;99.90;;;;;;4965699;28;20062;-78
2023/05/26 02:44:50;;;;;;;5.25;3.05;;;12.20;99.90;;;;;;4988337;28;20047;-78
2023/05/26 02:47:16;;;;;;;6.75;2.97;;;12.20;99.90;;;;;;4966625;28;20054;-78
2023/05/26 02:49:42;;;;;;;12.27;3.30;;;12.20;99.90;;;;;;4988860;28;20145;-78
2023/05/26 02:52:08;;;;;;;7.00;3.15;;;12.20;99.90;;;;;;4965972;28;20114;-77
2023/05/26 02:54:34;;;;;;;6.57;2.83;;;12.10;99.90;;;;;;4972609;28;20030;-77
2023/05/26 02:57:00;;;;;;;5.65;2.55;;;12.10;99.90;;;;;;4972627;28;20031;-78
2023/05/26 02:59:25;;;;;;;6.47;3.28;;;12.00;99.90;;;;;;4974967;28;20038;-79
2023/05/26 03:01:51;;;;;;;9.25;2.92;;;12.00;99.90;;;;;;4983285;28;20034;-79
2023/05/26 03:04:17;;;;;;;5.82;2.67;;;12.00;99.90;;;;;;4972644;28;20037;-78
2023/05/26 03:06:43;;;;;;;10.32;3.15;;;11.90;99.90;;;;;;4964257;28;20034;-79
2023/05/26 03:09:08;;;;;;;4.82;2.97;;;11.90;99.90;;;;;;4977916;28;20031;-79
2023/05/26 03:11:34;;;;;;;8.32;3.22;;;11.90;99.90;;;;;;4981662;28;20054;-79
2023/05/26 03:14:00;;;;;;;7.82;3.35;;;11.80;99.90;;;;;;4989245;28;20031;-79
2023/05/26 03:16:27;;;;;;;4.45;2.42;;;11.70;99.90;;;;;;4982365;28;20046;-78
2023/05/26 03:18:53;;;;;;;7.70;3.90;;;11.70;99.90;;;;;;4987706;28;20026;-78
2023/05/26 03:21:20;;;;;;;5.50;3.10;;;11.80;99.90;;;;;;4944042;28;20486;-78
2023/05/26 03:23:45;;;;;;;6.93;2.95;;;11.80;99.90;;;;;;4953843;28;20038;-77
2023/05/26 03:26:11;;;;;;;8.05;3.17;;;11.80;99.90;;;;;;4984418;28;20041;-78
2023/05/26 03:28:37;;;;;;;9.10;2.72;;;11.80;99.90;;;;;;4968443;28;20054;-77
2023/05/26 03:31:03;;;;;;;8.38;4.43;;;11.70;99.90;;;;;;4967868;28;20109;-78
2023/05/26 03:33:31;;;;;;;9.23;3.55;;;11.80;99.90;;;;;;4985208;28;20073;-78
2023/05/26 03:36:00;;;;;;;5.80;3.08;;;11.70;99.90;;;;;;4967591;28;20030;-77
2023/05/26 03:38:26;;;;;;;7.78;3.25;;;11.60;99.90;;;;;;4985474;28;20064;-77
2023/05/26 03:40:52;;;;;;;12.10;2.92;;;11.60;99.90;;;;;;4967505;28;20505;-77
2023/05/26 03:43:17;;;;;;;4.57;2.90;;;11.60;99.90;;;;;;4967894;28;20038;-78
2023/05/26 03:45:43;;;;;;;7.13;3.10;;;11.60;99.90;;;;;;4984285;28;20034;-78
2023/05/26 03:48:12;;;;;;;10.52;3.60;;;11.50;99.90;;;;;;4985160;28;20022;-78
2023/05/26 03:50:39;;;;;;;10.80;4.45;;;11.60;99.90;;;;;;4966792;28;20285;-78
2023/05/26 03:53:05;;;;;;;6.18;2.85;;;11.60;99.90;;;;;;4985317;28;20041;-78
2023/05/26 03:55:36;;;;;;;10.77;3.03;;;11.60;99.90;;;;;;4967283;28;20065;-78
2023/05/26 03:58:02;;;;;;;9.35;3.40;;;11.60;99.90;;;;;;4985203;28;20566;-78
2023/05/26 04:00:30;;;;;;;7.57;3.60;;;11.50;99.90;;;;;;4967025;28;20142;-78
2023/05/26 04:02:57;;;;;;;6.22;3.03;;;11.50;99.90;;;;;;4985028;28;20089;-78
2023/05/26 04:05:22;;;;;;;10.60;2.88;;;11.50;99.90;;;;;;4983830;28;20034;-78
2023/05/26 04:07:49;;;;;;;8.32;2.90;;;11.60;99.90;;;;;;4984904;28;20036;-78
2023/05/26 04:10:15;;;;;;;11.75;3.10;;;11.60;99.90;;;;;;4983538;28;20035;-78
2023/05/26 04:12:41;;;;;;;4.78;2.47;;;11.60;99.90;;;;;;4967608;28;20081;-78
2023/05/26 04:15:09;;;;;;;9.15;4.00;;;11.70;99.90;;;;;;4984216;28;20034;-78
2023/05/26 04:17:35;;;;;;;6.38;3.30;;;11.70;99.90;;;;;;4984919;28;20120;-79
2023/05/26 04:20:11;;;;;;;4.72;2.55;;;11.60;99.90;;;;;;4948521;28;20035;-79
2023/05/26 04:22:41;;;;;;;5.90;3.00;;;11.60;99.90;;;;;;4980294;28;20026;-79
2023/05/26 04:25:07;;;;;;;3.30;2.17;;;11.60;99.90;;;;;;4972123;28;20515;-79
2023/05/26 04:27:35;;;;;;;9.18;3.65;;;11.60;99.90;;;;;;4966847;28;20038;-79
2023/05/26 04:30:02;;;;;;;29.52;2.80;;;11.70;99.90;;;;;;4984465;28;20034;-79
2023/05/26 04:32:28;;;;;;;11.30;3.35;;;11.70;99.90;;;;;;4983336;28;20090;-77
2023/05/26 04:34:56;;;;;;;5.40;3.15;;;11.80;99.90;;;;;;4967082;28;20464;-78
2023/05/26 04:37:22;;;;;;;13.35;2.95;;;11.70;99.90;;;;;;4980705;28;20031;-80
2023/05/26 04:39:47;;;;;;;5.93;3.15;;;11.80;99.90;;;;;;4969248;28;20041;-79
2023/05/26 04:42:13;;;;;;;5.80;2.75;;;11.80;99.90;;;;;;4963918;28;20039;-78
2023/05/26 04:44:40;;;;;;;7.90;3.58;;;11.80;99.90;;;;;;4954145;28;20089;-78
2023/05/26 04:47:09;;;;;;;7.57;3.78;;;12.00;99.90;;;;;;4963383;28;20030;-77
2023/05/26 04:49:37;;;;;;;7.25;2.60;;;12.00;99.90;;;;;;4987252;28;20043;-77
2023/05/26 04:52:03;;;;;;;9.52;2.70;;;12.00;99.90;;;;;;4932629;28;20078;-77
2023/05/26 04:54:29;;;;;;;4.85;2.45;;;12.10;99.90;;;;;;4970087;28;20049;-78
2023/05/26 04:56:55;;;;;;;10.50;3.20;;;12.10;99.90;;;;;;4963008;28;20487;-78
2023/05/26 04:59:23;;;;;;;5.90;2.75;;;12.10;99.90;;;;;;4986648;28;20032;-74
2023/05/26 05:01:49;;;;;;;9.55;3.78;;;12.20;99.90;;;;;;4960620;28;20121;-75
2023/05/26 05:04:15;;;;;;;5.97;3.20;;;12.30;99.90;;;;;;4956644;28;20046;-75
2023/05/26 05:06:41;;;;;;;7.68;3.42;;;12.40;99.90;;;;;;4964593;28;20038;-74
2023/05/26 05:09:08;;;;;;;4.65;2.53;;;12.50;99.90;;;;;;4983759;28;20023;-74
2023/05/26 05:11:34;;;;;;;8.80;3.05;;;12.60;99.90;;;;;;4961789;28;20027;-75
2023/05/26 05:13:59;;;;;;;5.20;2.50;;;12.50;99.90;;;;;;4953255;28;20038;-74
2023/05/26 05:16:25;;;;;;;6.82;2.83;;;12.70;99.90;;;;;;4946558;28;20166;-74
2023/05/26 05:18:51;;;;;;;8.23;3.22;;;12.70;99.90;;;;;;4985823;28;20073;-73
2023/05/26 05:21:17;;;;;;;4.93;2.35;;;12.80;99.90;;;;;;4980948;28;20487;-74
2023/05/26 05:23:43;;;;;;;4.07;2.42;;;12.90;99.90;;;;;;4984424;28;20038;-75
2023/05/26 05:26:08;;;;;;;5.85;2.58;;;12.90;99.90;;;;;;4983360;28;20066;-74
2023/05/26 05:28:34;;;;;;;4.68;2.75;;;13.10;99.90;;;;;;4983602;28;20114;-74
2023/05/26 05:31:00;;;;;;;7.35;3.42;;;13.20;99.90;;;;;;4969252;28;20474;-74
2023/05/26 05:33:27;;;;;;;4.53;2.67;;;13.20;99.90;;;;;;4982904;28;20030;-73
2023/05/26 05:35:54;;;;;;;5.03;2.78;;;13.20;99.90;;;;;;4982052;28;20148;-73
2023/05/26 05:38:19;;;;;;;7.55;3.72;;;13.30;99.90;;;;;;4965616;28;20057;-73
2023/05/26 05:40:45;;;;;;;5.32;3.05;;;13.30;99.90;;;;;;4964545;28;20061;-74
2023/05/26 05:43:11;;;;;;;10.05;3.40;;;13.40;99.90;;;;;;4949636;28;20030;-75
2023/05/26 05:45:37;;;;;;;4.85;2.58;;;13.50;99.90;;;;;;4949219;28;20085;-74
2023/05/26 05:48:03;;;;;;;7.18;2.38;;;13.60;99.90;;;;;;4965374;28;20033;-74
2023/05/26 05:50:30;;;;;;;10.38;2.72;;;13.60;99.90;;;;;;4964493;28;20034;-73
2023/05/26 05:52:55;;;;;;;6.25;3.22;;;13.70;99.90;;;;;;4965219;28;20026;-74
2023/05/26 05:55:21;;;;;;;6.97;2.90;;;13.70;99.90;;;;;;4981914;28;20041;-73
2023/05/26 05:57:47;;;;;;;9.30;3.83;;;13.80;99.90;;;;;;4965198;28;20084;-73
2023/05/26 06:00:13;;;;;;;9.07;3.05;;;13.90;99.90;;;;;;4984445;28;20038;-73
2023/05/26 06:02:39;;;;;;;5.32;2.60;;;14.00;99.90;;;;;;4960371;28;20031;-74
2023/05/26 06:05:05;;;;;;;8.65;3.22;;;14.10;99.90;;;;;;4975183;28;20092;-74
2023/05/26 06:07:31;;;;;;;9.43;3.20;;;14.20;99.90;;;;;;4983716;28;20065;-76
2023/05/26 06:09:57;;;;;;;11.02;2.72;;;14.10;99.90;;;;;;4976082;28;20042;-76
2023/05/26 06:12:24;;;;;;;3.08;2.10;;;14.20;99.90;;;;;;4983191;28;20022;-79
2023/05/26 06:14:50;;;;;;;7.30;2.60;;;14.20;99.90;;;;;;4978520;28;20130;-77
2023/05/26 06:17:15;;;;;;;5.85;2.83;;;14.20;99.90;;;;;;4969499;28;20198;-74
2023/05/26 06:19:41;;;;;;;6.88;3.30;;;14.40;99.90;;;;;;4968113;28;20113;-75
2023/05/26 06:22:07;;;;;;;6.28;3.05;;;14.50;99.90;;;;;;4986922;28;20038;-74
2023/05/26 06:24:33;;;;;;;8.50;3.22;;;14.60;99.90;;;;;;4984584;28;20628;-75
2023/05/26 06:26:58;;;;;;;7.20;2.53;;;14.60;99.90;;;;;;4985338;28;20034;-74
2023/05/26 06:29:24;;;;;;;4.43;2.30;;;14.60;99.90;;;;;;4977682;28;20039;-73
2023/05/26 06:31:50;;;;;;;9.32;2.80;;;14.70;99.90;;;;;;4967630;28;20431;-74
2023/05/26 06:34:16;;;;;;;5.47;2.55;;;14.90;99.90;;;;;;4975762;28;20039;-74
2023/05/26 06:36:41;;;;;;;5.68;2.67;;;15.00;99.90;;;;;;4968827;28;20041;-74
2023/05/26 06:39:07;;;;;;;4.28;2.20;;;15.00;99.90;;;;;;4968623;28;20042;-74
2023/05/26 06:41:33;;;;;;;9.32;3.30;;;15.20;99.90;;;;;;4986320;28;20394;-74
2023/05/26 06:43:59;;;;;;;7.50;2.53;;;15.20;99.90;;;;;;4980867;28;20082;-75
2023/05/26 06:46:24;;;;;;;7.18;2.95;;;15.10;99.90;;;;;;4983392;28;20590;-75
2023/05/26 06:48:50;;;;;;;6.97;3.05;;;15.20;99.90;;;;;;4982824;28;20380;-75
2023/05/26 06:51:16;;;;;;;4.53;2.35;;;15.30;99.90;;;;;;4974848;28;20031;-74
2023/05/26 06:53:42;;;;;;;5.35;2.75;;;15.30;99.90;;;;;;4985351;28;20035;-74
2023/05/26 06:56:08;;;;;;;4.97;2.67;;;15.40;99.90;;;;;;4979245;28;20023;-75
2023/05/26 06:58:33;;;;;;;13.25;3.00;;;15.50;99.90;;;;;;4965008;28;20035;-75
2023/05/26 07:01:02;;;;;;;6.78;2.58;;;15.60;99.90;;;;;;4981495;28;20088;-75
2023/05/26 07:03:30;;;;;;;9.68;2.88;;;15.70;99.90;;;;;;4973349;28;20039;-74
2023/05/26 07:05:57;;;;;;;4.32;2.33;;;15.80;99.90;;;;;;4977025;28;20508;-77
2023/05/26 07:08:23;;;;;;;8.38;2.85;;;15.90;99.90;;;;;;4970874;28;20077;-80
2023/05/26 07:10:49;;;;;;;3.88;2.47;;;16.00;99.90;;;;;;4976068;28;20067;-77
2023/05/26 07:13:16;;;;;;;3.75;2.28;;;16.10;99.90;;;;;;4989503;28;20035;-76
2023/05/26 07:15:42;;;;;;;12.35;2.70;;;16.10;99.90;;;;;;4965362;28;20031;-76
2023/05/26 07:18:08;;;;;;;8.98;2.63;;;16.30;99.90;;;;;;4989587;28;20058;-74
2023/05/26 07:20:34;;;;;;;13.32;4.00;;;16.10;99.90;;;;;;4980917;28;20031;-76
2023/05/26 07:23:00;;;;;;;24.85;3.58;;;16.30;99.90;;;;;;4972498;28;20074;-77
2023/05/26 07:25:27;;;;;;;4.30;1.95;;;16.40;99.90;;;;;;4939492;28;20034;-77
2023/05/26 07:27:52;;;;;;;8.00;2.58;;;16.50;99.90;;;;;;4974555;28;20483;-75
2023/05/26 07:30:19;;;;;;;10.07;2.70;;;16.50;99.90;;;;;;4970489;28;20038;-76
2023/05/26 07:32:44;;;;;;;10.20;2.38;;;16.60;99.90;;;;;;4963678;28;20450;-76
2023/05/26 07:35:11;;;;;;;7.93;2.47;;;16.60;99.90;;;;;;4964836;28;20169;-77
2023/05/26 07:37:38;;;;;;;5.43;2.53;;;16.70;99.90;;;;;;4985795;28;20034;-76
2023/05/26 07:40:04;;;;;;;7.40;2.58;;;16.80;99.90;;;;;;4951326;28;20080;-76
2023/05/26 07:42:31;;;;;;;12.63;2.50;;;17.00;99.90;;;;;;4968155;28;20064;-76
2023/05/26 07:44:57;;;;;;;7.47;3.10;;;17.10;99.90;;;;;;4976890;28;20080;-77
2023/05/26 07:47:23;;;;;;;5.75;2.78;;;17.10;99.90;;;;;;4985307;28;20105;-77
2023/05/26 07:49:49;;;;;;;5.53;2.58;;;17.20;99.90;;;;;;4966651;28;20030;-77
2023/05/26 07:52:15;;;;;;;10.40;2.58;;;17.20;99.90;;;;;;4968666;28;20157;-77
2023/05/26 07:54:41;;;;;;;6.70;3.22;;;17.30;99.90;;;;;;4927866;28;20121;-77
2023/05/26 07:57:07;;;;;;;7.78;2.38;;;17.40;99.90;;;;;;4985504;28;20331;-77
2023/05/26 07:59:33;;;;;;;6.10;2.70;;;17.40;99.90;;;;;;4981507;28;20043;-78
2023/05/26 08:01:59;;;;;;;8.85;2.63;;;17.50;99.90;;;;;;4977553;28;20029;-76
2023/05/26 08:04:24;;;;;;;6.30;2.80;;;17.50;99.90;;;;;;4967373;28;20035;-76
2023/05/26 08:06:50;;;;;;;7.72;2.58;;;17.70;99.90;;;;;;4967504;28;20043;-77
2023/05/26 08:09:16;;;;;;;7.53;2.72;;;17.70;99.90;;;;;;4976227;28;20057;-77
2023/05/26 08:11:42;;;;;;;5.28;2.30;;;17.80;99.90;;;;;;4984742;28;20027;-77
2023/05/26 08:14:08;;;;;;;5.50;2.03;;;17.70;99.90;;;;;;4977138;28;20558;-78
2023/05/26 08:16:33;;;;;;;7.20;2.97;;;17.60;99.90;;;;;;4984239;28;20513;-77
2023/05/26 08:18:59;;;;;;;5.72;2.45;;;17.80;99.90;;;;;;4968159;28;20487;-77
2023/05/26 08:21:25;;;;;;;6.20;2.28;;;18.00;99.90;;;;;;4982846;28;20069;-77
2023/05/26 08:23:51;;;;;;;9.85;2.88;;;18.10;99.90;;;;;;4981352;28;20067;-77
2023/05/26 08:26:17;;;;;;;6.13;2.85;;;18.30;99.90;;;;;;4979630;28;20086;-77
2023/05/26 08:28:43;;;;;;;6.20;2.08;;;18.30;99.90;;;;;;4969726;28;20038;-77
2023/05/26 08:31:09;;;;;;;5.38;2.53;;;18.40;99.90;;;;;;4971514;28;20033;-77
2023/05/26 08:33:34;;;;;;;5.13;2.25;;;18.50;99.90;;;;;;4969474;28;20039;-76
2023/05/26 08:36:00;;;;;;;6.32;2.50;;;18.60;99.90;;;;;;4976151;28;20034;-77
2023/05/26 08:38:26;;;;;;;8.02;2.88;;;18.60;99.90;;;;;;4986208;28;20038;-77
2023/05/26 08:40:56;;;;;;;7.10;2.13;;;18.60;99.90;;;;;;4974895;28;20031;-76
2023/05/26 08:43:32;;;;;;;9.52;3.22;;;18.40;99.90;;;;;;4986587;28;20425;-77
2023/05/26 08:46:03;;;;;;;6.28;2.17;;;18.60;99.90;;;;;;4964114;28;20097;-77
2023/05/26 08:48:29;;;;;;;;;;;18.70;99.90;;;;;;4968799;28;20058;-77
2023/05/26 08:50:56;;;;;;;4.50;2.17;;;18.90;99.90;;;;;;4963261;28;19952;-76
2023/05/26 08:53:24;;;;;;;4.97;2.40;;;19.00;99.90;;;;;;4950805;28;20033;-78
2023/05/26 08:55:50;;;;;;;14.20;2.58;;;19.10;99.90;;;;;;4974246;28;20487;-77
2023/05/26 08:58:16;;;;;;;4.25;1.63;;;19.20;99.90;;;;;;4969449;28;20045;-77
2023/05/26 09:00:45;;;;;;;7.65;2.75;;;19.20;99.90;;;;;;4973325;28;20068;-76
2023/05/26 09:03:11;;;;;;;7.35;2.45;;;19.30;99.90;;;;;;4974898;28;20364;-77
2023/05/26 09:05:37;;;;;;;12.02;2.38;;;19.40;99.90;;;;;;4963586;28;20058;-78
2023/05/26 09:08:04;;;;;;;5.57;3.00;;;19.60;99.90;;;;;;4974262;28;20067;-78
2023/05/26 09:10:32;;;;;;;4.22;2.28;;;19.80;99.90;;;;;;4979971;28;20088;-78
2023/05/26 09:13:03;;;;;;;7.15;2.55;;;19.80;99.90;;;;;;4982377;28;20046;-78
2023/05/26 09:15:29;;;;;;;7.10;2.38;;;19.90;99.90;;;;;;4962647;28;20117;-77
2023/05/26 09:18:12;;;;;;;4.45;2.33;;;20.10;99.90;;;;;;4957420;28;20043;-78
2023/05/26 09:20:44;;;;;;;7.80;3.15;;;20.30;99.90;;;;;;4963423;28;20037;-78
2023/05/26 09:23:11;;;;;;;7.78;2.72;;;20.20;99.90;;;;;;4987268;28;20238;-77
2023/05/26 09:25:40;;;;;;;8.27;3.10;;;20.20;99.90;;;;;;4979468;28;20037;-77
2023/05/26 09:28:09;;;;;;;4.43;2.33;;;20.40;99.90;;;;;;4970805;28;20363;-77
2023/05/26 09:30:37;;;;;;;11.30;2.53;;;20.40;99.90;;;;;;4938495;28;20040;-78
2023/05/26 09:33:10;;;;;;;7.80;2.80;;;20.40;99.80;;;;;;4976312;28;20529;-77
2023/05/26 09:35:44;;;;;;;7.32;2.90;;;20.70;99.40;;;;;;4979330;28;20121;-77
2023/05/26 09:38:13;;;;;;;3.33;2.00;;;20.60;99.30;;;;;;4969076;28;20080;-76
2023/05/26 09:40:43;;;;;;;5.80;2.25;;;20.50;99.70;;;;;;4979810;28;20035;-77
2023/05/26 09:43:10;;;;;;;7.13;3.38;;;20.60;99.30;;;;;;4987416;28;20502;-77
2023/05/26 09:45:37;;;;;;;6.32;2.40;;;20.70;99.10;;;;;;4945846;28;20062;-77
2023/05/26 09:48:05;;;;;;;6.25;2.28;;;20.90;99.20;;;;;;4968528;28;20022;-77
2023/05/26 09:50:36;;;;;;;7.82;2.22;;;21.10;98.60;;;;;;4971340;28;20100;-76
2023/05/26 09:53:10;;;;;;;4.68;2.53;;;21.10;98.50;;;;;;4971926;28;20121;-77
2023/05/26 09:55:42;;;;;;;10.82;3.20;;;21.30;97.90;;;;;;4962587;28;20026;-75
2023/05/26 09:58:12;;;;;;;3.00;1.75;;;21.50;97.40;;;;;;4986944;28;20084;-76
2023/05/26 10:00:41;;;;;;;7.43;2.27;;;21.50;97.00;;;;;;4982226;28;20087;-75
2023/05/26 10:03:08;;;;;;;6.05;2.25;;;21.40;97.40;;;;;;4958108;28;20088;-74
2023/05/26 10:05:38;;;;;;;4.10;1.73;;;21.50;97.10;;;;;;4961956;28;20302;-78
2023/05/26 10:08:06;;;;;;;7.72;1.85;;;21.50;97.20;;;;;;4969394;28;20046;-74
2023/05/26 10:10:33;;;;;;;5.45;2.25;;;21.70;96.80;;;;;;4962303;28;20042;-75
2023/05/26 10:13:01;;;;;;;5.60;2.13;;;21.90;96.60;;;;;;4970836;23;20055;-69
2023/05/26 10:15:27;;;;;;;5.40;2.00;;;21.90;95.60;;;;;;4950625;28;20388;-68
2023/05/26 10:17:53;;;;;;;5.05;1.80;;;22.10;95.50;;;;;;4949127;29;20452;-70
2023/05/26 10:20:19;;;;;;;8.27;2.28;;;22.10;95.40;;;;;;4932524;29;20047;-68
2023/05/26 10:22:57;;;;;;;5.82;1.70;;;22.20;95.40;;;;;;4962906;28;20479;-70
2023/05/26 10:26:00;;;;;;;7.03;2.15;;;22.40;95.10;;;;;;4969823;28;20048;-68
2023/05/26 10:28:35;;;;;;;5.00;2.13;;;22.40;95.00;;;;;;4967323;28;20038;-67
2023/05/26 10:31:01;;;;;;;4.50;1.65;;;22.30;94.20;;;;;;4954471;28;20027;-68
2023/05/26 10:33:46;;;;;;;4.40;2.10;;;22.10;94.30;;;;;;4954314;28;20031;-69
2023/05/26 10:36:17;;;;;;;7.82;1.95;;;22.50;93.80;;;;;;4970068;28;20069;-69
2023/05/26 10:38:49;;;;;;;4.97;2.22;;;22.50;94.50;;;;;;4969358;28;20074;-69
2023/05/26 10:41:33;;;;;;;5.43;1.90;;;22.80;93.20;;;;;;4971014;28;20035;-69
2023/05/26 10:44:01;;;;;;;6.68;2.20;;;22.50;93.00;;;;;;4963452;28;20117;-70
2023/05/26 10:47:01;;;;;;;5.57;1.95;;;22.80;92.90;;;;;;4969442;28;20031;-70
2023/05/26 10:49:27;;;;;;;4.40;1.80;;;23.10;92.30;;;;;;4966874;28;20030;-69
2023/05/26 10:51:54;;;;;;;7.20;2.72;;;23.20;92.20;;;;;;4965560;28;20044;-69
2023/05/26 10:54:26;;;;;;;4.43;1.90;;;22.90;91.60;;;;;;4969447;28;20023;-71
2023/05/26 10:56:54;;;;;;;3.90;2.28;;;23.20;92.50;;;;;;4967993;28;20035;-69
2023/05/26 10:59:36;;;;;;;6.93;2.45;;;23.20;91.70;;;;;;4963518;28;20046;-70
2023/05/26 11:02:07;;;;;;;3.40;2.10;;;23.50;91.30;;;;;;4973372;28;20039;-71
2023/05/26 11:04:47;;;;;;;4.60;1.90;;;23.70;91.20;;;;;;4952296;28;20061;-71
2023/05/26 11:07:26;;;;;;;3.08;1.52;;;23.90;91.20;;;;;;4964359;28;20065;-71
2023/05/26 11:10:06;;;;;;;2.95;1.65;;;24.10;91.00;;;;;;4963289;28;20054;-70
2023/05/26 11:12:34;;;;;;;3.40;1.70;;;23.90;90.40;;;;;;4975455;28;20356;-71
2023/05/26 11:15:40;;;;;;;4.00;1.65;;;24.00;90.10;;;;;;4965281;28;20443;-70
2023/05/26 11:18:09;;;;;;;4.65;2.13;;;24.10;89.90;;;;;;4956649;28;20074;-70
2023/05/26 11:20:35;;;;;;;6.95;3.10;;;24.20;88.80;;;;;;4967565;28;20057;-70
2023/05/26 11:23:03;;;;;;;5.10;1.90;;;24.40;88.70;;;;;;4966172;28;20035;-71
2023/05/26 11:25:28;;;;;;;8.45;1.80;;;24.10;89.10;;;;;;4967627;28;20031;-71
2023/05/26 11:27:54;;;;;;;5.32;2.35;;;24.40;88.30;;;;;;4970566;28;20483;-72
2023/05/26 11:30:21;;;;;;;4.13;1.90;;;24.70;87.20;;;;;;4968310;28;20062;-71
2023/05/26 11:32:50;;;;;;;4.60;1.83;;;25.00;87.40;;;;;;4970588;28;20522;-69
2023/05/26 11:35:28;;;;;;;10.02;1.50;;;24.80;86.60;;;;;;4953014;28;20038;-72
2023/05/26 11:37:55;;;;;;;3.85;1.58;;;24.90;84.70;;;;;;4970190;28;20035;-70
2023/05/26 11:40:21;;;;;;;4.22;1.88;;;24.90;86.20;;;;;;4974587;28;20109;-71
2023/05/26 11:42:53;;;;;;;2.65;1.50;;;25.00;86.40;;;;;;4971044;28;20041;-71
2023/05/26 11:45:20;;;;;;;4.10;1.65;;;25.20;85.70;;;;;;4977685;28;20034;-70
2023/05/26 11:47:48;;;;;;;6.05;2.08;;;25.20;84.70;;;;;;4944983;28;20019;-69
2023/05/26 11:50:14;;;;;;;6.03;2.47;;;24.80;85.30;;;;;;4995422;28;20042;-73
2023/05/26 11:52:48;;;;;;;3.88;1.73;;;24.90;84.90;;;;;;4991059;28;20030;-71
2023/05/26 11:55:18;;;;;;;6.05;1.67;;;24.80;85.20;;;;;;4996322;28;20494;-68
2023/05/26 11:57:45;;;;;;;4.10;1.90;;;24.90;85.10;;;;;;4891512;28;20057;-70
2023/05/26 12:00:19;;;;;;;4.57;1.92;;;24.70;83.40;;;;;;4979250;28;20306;-71
2023/05/26 12:02:48;;;;;;;7.10;2.38;;;24.90;83.10;;;;;;4970768;28;20061;-71
2023/05/26 12:05:18;;;;;;;3.70;1.58;;;25.20;83.30;;;;;;4988414;28;20494;-70
2023/05/26 12:07:45;;;;;;;3.28;1.88;;;25.40;84.10;;;;;;4973385;28;20114;-71
2023/05/26 12:10:11;;;;;;;3.55;1.85;;;25.90;82.40;;;;;;4967629;28;20050;-69
2023/05/26 12:12:50;;;;;;;2.83;1.58;;;25.70;81.60;;;;;;4955618;28;20031;-71
2023/05/26 12:15:20;;;;;;;4.13;1.98;;;25.50;83.40;;;;;;4960847;28;20118;-70
2023/05/26 12:17:47;;;;;;;3.65;1.98;;;25.70;82.70;;;;;;4955560;28;20035;-69
2023/05/26 12:20:21;;;;;;;4.68;2.35;;;26.00;81.30;;;;;;4976669;28;20040;-68
2023/05/26 12:23:01;;;;;;;6.57;1.52;;;26.00;80.10;;;;;;4968123;28;20034;-68
2023/05/26 12:25:30;;;;;;;3.15;1.42;;;25.80;77.70;;;;;;4971284;28;20145;-69
2023/05/26 12:27:56;;;;;;;4.25;1.90;;;26.10;80.10;;;;;;4963839;28;20069;-69
2023/05/26 12:30:26;;;;;;;4.28;1.73;;;26.40;78.20;;;;;;4949868;28;20035;-70
2023/05/26 12:32:52;;;;;;;4.72;1.30;;;26.00;77.50;;;;;;4959674;28;20045;-69
2023/05/26 12:35:18;;;;;;;2.70;1.35;;;25.60;80.20;;;;;;4962798;28;20039;-68
2023/05/26 12:37:45;;;;;;;5.57;1.83;;;25.80;78.70;;;;;;4969549;28;20031;-70
2023/05/26 12:40:11;;;;;;;2.72;1.48;;;26.40;77.30;;;;;;4975739;28;20031;-70
2023/05/26 12:42:38;;;;;;;3.10;1.75;;;26.20;77.20;;;;;;4972059;28;20030;-70
2023/05/26 12:45:05;;;;;;;4.18;1.67;;;26.10;76.40;;;;;;4972762;28;20042;-69
2023/05/26 12:47:31;;;;;;;3.97;1.45;;;26.40;79.10;;;;;;4967654;28;20062;-69
2023/05/26 12:49:57;;;;;;;3.47;1.63;;;26.10;77.10;;;;;;4975355;28;20065;-69